Republic Airport Farmingdale US
ICAO: KFRG
IATA: FRG
Category: Medium
Scheduled Services: No

Elevation: 82 ft
TransAlt. 18000 ft.

Airport Communications:
NEW YORK APP:118.4
ATIS:126.65
CLNC DEL:128.25
CTAF:118.8
NEW YORK DEP:123.7
GND:121.6
:111.9
TWR:118.8
UNICOM:122.95

KFRG Zoom In..

Runways:

(A) RW 01 length 5516 ft width 150 ft
---- / hdg 13

(B) RW 14 length 6833 ft width 150 ft
ILS 111.90 / hdg 146

(C) RW 19 length 5516 ft width 150 ft
---- / hdg 193

(D) RW 32 length 6833 ft width 150 ft
---- / hdg 326

Location; KFRG
Day. 25 / Time. 10.46 Zulu
* Altimeter: 29.98
* Temperature: 12° c. 53.6°f.
* Wind from: 110° Speed 16 kn with Gusts up to 19 kn.
Dewpoint: 12° c.
Visibility: 1 m.
Clouds: Broken 500 ft.
Clouds: Overcast 1100 ft.
Conditions: Rain.Conditions: Mist.

KFRG 251046Z 11016G19KT 1 1/4SM RA BR BKN005 OVC011 12/12 A2998 RMK AO2 P0012 T01220117


Wind From 110°
Speed 16 kn.

  YouTube Music Video
 
jpsmedia.com for Web Design  worldairports.se 2018   terms of use